Time;durP1;ratioP1;P1;durP2;ratioP2;P2;SDS_P1;SDS_P2;PMS_P1;PMS_P2;Temp;Humidity;BMP_temperature;BMP_pressure;BME280_temperature;BME280_humidity;BME280_pressure;Samples;Min_cycle;Max_cycle;Signal;HPM_P1;HPM_P2
2023/08/07 00:01:26;;;;;;;;;;;14.80;99.90;;;;;;7333327;19;109039;-67
2023/08/07 00:03:53;;;;;;;;;;;14.80;99.90;;;;;;7328377;19;112953;-66
2023/08/07 00:06:20;;;;;;;;;;;14.80;99.90;;;;;;7328745;19;110258;-67
2023/08/07 00:08:48;;;;;;;;;;;14.80;99.90;;;;;;7324083;19;112401;-67
2023/08/07 00:11:15;;;;;;;;;;;14.80;99.90;;;;;;7333628;19;109339;-68
2023/08/07 00:13:42;;;;;;;;;;;14.90;99.90;;;;;;7328241;19;110596;-67
2023/08/07 00:16:10;;;;;;;;;;;14.90;99.90;;;;;;7329271;19;108869;-67
2023/08/07 00:18:37;;;;;;;;;;;14.90;99.90;;;;;;7324239;19;109122;-68
2023/08/07 00:21:04;;;;;;;;;;;14.90;99.90;;;;;;7327592;19;109734;-67
2023/08/07 00:23:31;;;;;;;;;;;14.90;99.90;;;;;;7328759;19;109243;-67
2023/08/07 00:25:58;;;;;;;;;;;14.90;99.90;;;;;;7331677;19;109016;-68
2023/08/07 00:28:25;;;;;;;;;;;14.80;99.90;;;;;;7324333;19;109432;-67
2023/08/07 00:30:53;;;;;;;;;;;14.90;99.90;;;;;;7331534;19;112843;-68
2023/08/07 00:33:20;;;;;;;;;;;14.80;99.90;;;;;;7335002;19;109517;-66
2023/08/07 00:35:47;;;;;;;;;;;14.80;99.90;;;;;;7333212;19;109239;-67
2023/08/07 00:38:14;;;;;;;;;;;14.80;99.90;;;;;;7327721;19;109220;-67
2023/08/07 00:40:41;;;;;;;;;;;14.80;99.90;;;;;;7330211;19;108821;-67
2023/08/07 00:43:08;;;;;;;;;;;14.80;99.90;;;;;;7327142;19;110187;-67
2023/08/07 00:45:42;;;;;;;;;;;14.70;99.90;;;;;;7328335;19;109205;-67
2023/08/07 00:48:09;;;;;;;;;;;14.70;99.90;;;;;;7329976;19;109155;-67
2023/08/07 00:50:37;;;;;;;;;;;14.70;99.90;;;;;;7330148;19;111712;-67
2023/08/07 00:53:13;;;;;;;;;;;14.70;99.90;;;;;;7329517;19;109239;-67
2023/08/07 00:55:41;;;;;;;;;;;14.70;99.90;;;;;;7336608;19;108973;-68
2023/08/07 00:58:09;;;;;;;;;;;14.70;99.90;;;;;;7328462;19;109535;-67
2023/08/07 01:00:36;;;;;;;;;;;14.60;99.90;;;;;;7329905;19;109008;-67
2023/08/07 01:03:07;;;;;;;;;;;14.60;99.90;;;;;;7328107;19;108739;-67
2023/08/07 01:05:34;;;;;;;;;;;14.60;99.90;;;;;;7325819;19;110893;-67
2023/08/07 01:08:02;;;;;;;;;;;14.70;99.90;;;;;;7328687;19;110067;-67
2023/08/07 01:10:47;;;;;;;;;;;14.70;99.90;;;;;;7314635;19;111013;-67
2023/08/07 01:13:26;;;;;;;;;;;14.70;99.90;;;;;;7327597;19;109947;-67
2023/08/07 01:15:59;;;;;;;;;;;14.70;99.90;;;;;;7334034;19;108729;-67
2023/08/07 01:18:26;;;;;;;;;;;14.60;99.90;;;;;;7334472;19;109664;-67
2023/08/07 01:20:54;;;;;;;;;;;14.70;99.90;;;;;;7335205;19;110170;-68
2023/08/07 01:23:21;;;;;;;;;;;14.70;99.90;;;;;;7334204;19;109016;-66
2023/08/07 01:25:48;;;;;;;;;;;14.70;99.90;;;;;;7334043;19;111808;-67
2023/08/07 01:28:18;;;;;;;;;;;14.70;99.90;;;;;;7334585;19;108948;-67
2023/08/07 01:30:48;;;;;;;;;;;14.60;99.90;;;;;;7332629;19;109031;-68
2023/08/07 01:33:22;;;;;;;;;;;14.60;99.90;;;;;;7336169;19;109897;-67
2023/08/07 01:35:51;;;;;;;;;;;14.60;99.90;;;;;;7334928;19;109346;-67
2023/08/07 01:38:20;;;;;;;;;;;14.60;99.90;;;;;;7335422;19;108881;-66
2023/08/07 01:40:48;;;;;;;;;;;14.60;99.90;;;;;;7338390;19;109626;-67
2023/08/07 01:43:15;;;;;;;;;;;14.60;99.90;;;;;;7336593;19;109541;-68
2023/08/07 01:45:43;;;;;;;;;;;14.60;99.90;;;;;;7338193;19;110954;-69
2023/08/07 01:48:11;;;;;;;;;;;14.60;99.90;;;;;;7335154;19;109636;-68
2023/08/07 01:50:41;;;;;;;;;;;14.60;99.90;;;;;;7335758;19;108690;-67
2023/08/07 01:53:08;;;;;;;;;;;14.60;99.90;;;;;;7332531;19;115325;-66
2023/08/07 01:55:35;;;;;;;;;;;14.50;99.90;;;;;;7333736;19;109816;-67
2023/08/07 01:58:03;;;;;;;;;;;14.50;99.90;;;;;;7323333;19;109192;-67
2023/08/07 02:00:31;;;;;;;;;;;14.50;99.90;;;;;;7336385;19;109599;-68
2023/08/07 02:02:58;;;;;;;;;;;14.50;99.90;;;;;;7343704;19;110822;-67
2023/08/07 02:05:25;;;;;;;;;;;14.40;99.90;;;;;;7334695;19;110767;-69
2023/08/07 02:07:52;;;;;;;;;;;14.40;99.90;;;;;;7333121;19;109510;-67
2023/08/07 02:10:20;;;;;;;;;;;14.40;99.90;;;;;;7330305;19;110270;-65
2023/08/07 02:12:47;;;;;;;;;;;14.40;99.90;;;;;;7343942;19;109210;-68
2023/08/07 02:15:14;;;;;;;;;;;14.40;99.90;;;;;;7346744;19;108695;-67
2023/08/07 02:17:42;;;;;;;;;;;14.40;99.90;;;;;;7337588;19;108652;-72
2023/08/07 02:20:09;;;;;;;;;;;14.40;99.90;;;;;;7335963;19;110905;-77
2023/08/07 02:22:36;;;;;;;;;;;14.40;99.90;;;;;;7335703;19;111268;-74
2023/08/07 02:25:04;;;;;;;;;;;14.40;99.90;;;;;;7333940;19;110210;-72
2023/08/07 02:27:31;;;;;;;;;;;14.30;99.90;;;;;;7333031;19;109659;-75
2023/08/07 02:29:58;;;;;;;;;;;14.30;99.90;;;;;;7330610;19;109291;-71
2023/08/07 02:32:25;;;;;;;;;;;14.30;99.90;;;;;;7338613;19;109497;-71
2023/08/07 02:34:52;;;;;;;;;;;14.30;99.90;;;;;;7332802;19;108799;-73
2023/08/07 02:37:20;;;;;;;;;;;14.30;99.90;;;;;;7329655;19;110041;-70
2023/08/07 02:39:47;;;;;;;;;;;14.30;99.90;;;;;;7330623;19;109155;-68
2023/08/07 02:42:15;;;;;;;;;;;14.30;99.90;;;;;;7331861;19;108505;-72
2023/08/07 02:44:45;;;;;;;;;;;14.30;99.90;;;;;;7333030;19;109808;-72
2023/08/07 02:47:12;;;;;;;;;;;14.30;99.90;;;;;;7332585;19;109349;-68
2023/08/07 02:49:39;;;;;;;;;;;14.30;99.90;;;;;;7334095;19;109488;-68
2023/08/07 02:52:06;;;;;;;;;;;14.20;99.90;;;;;;7337031;19;110771;-88
2023/08/07 02:54:34;;;;;;;;;;;14.20;99.90;;;;;;7347137;19;109127;-88
2023/08/07 02:57:01;;;;;;;;;;;14.20;99.90;;;;;;7343654;19;109398;-87
2023/08/07 02:59:28;;;;;;;;;;;14.20;99.90;;;;;;7343499;19;110207;-87
2023/08/07 03:01:55;;;;;;;;;;;14.20;99.90;;;;;;7343428;19;108969;-88
2023/08/07 03:04:22;;;;;;;;;;;14.20;99.90;;;;;;7349999;19;108321;-88
2023/08/07 03:06:50;;;;;;;;;;;14.20;99.90;;;;;;7350786;19;110554;-88
2023/08/07 03:09:18;;;;;;;;;;;14.20;99.90;;;;;;7341018;19;109447;-88
2023/08/07 03:11:45;;;;;;;;;;;14.20;99.90;;;;;;7342369;19;108417;-89
2023/08/07 03:14:12;;;;;;;;;;;14.20;99.90;;;;;;7340685;19;110258;-87
2023/08/07 03:16:42;;;;;;;;;;;14.10;99.90;;;;;;7342520;19;110571;-88
2023/08/07 03:19:09;;;;;;;;;;;14.10;99.90;;;;;;7340910;19;109895;-88
2023/08/07 03:21:37;;;;;;;;;;;14.10;99.90;;;;;;7344019;19;109080;-88
2023/08/07 03:24:04;;;;;;;;;;;14.10;99.90;;;;;;7345098;19;109240;-88
2023/08/07 03:26:36;;;;;;;;;;;14.10;99.90;;;;;;7346535;19;110202;-88
2023/08/07 03:29:03;;;;;;;;;;;14.10;99.90;;;;;;7351575;19;108823;-87
2023/08/07 03:31:30;;;;;;;;;;;14.00;99.90;;;;;;7343076;19;109391;-89
2023/08/07 03:33:58;;;;;;;;;;;14.00;99.90;;;;;;7343104;19;108872;-89
2023/08/07 03:36:25;;;;;;;;;;;14.00;99.90;;;;;;7347426;19;108772;-88
2023/08/07 03:38:52;;;;;;;;;;;13.90;99.90;;;;;;7343018;19;110545;-88
2023/08/07 03:41:19;;;;;;;;;;;13.90;99.90;;;;;;7344823;19;108406;-87
2023/08/07 03:43:47;;;;;;;;;;;13.90;99.90;;;;;;7345144;19;109887;-88
2023/08/07 03:46:14;;;;;;;;;;;13.90;99.90;;;;;;7343475;19;109918;-87
2023/08/07 03:48:41;;;;;;;;;;;13.90;99.90;;;;;;7343214;19;109303;-88
2023/08/07 03:51:08;;;;;;;;;;;13.90;99.90;;;;;;7348661;19;111640;-88
2023/08/07 03:53:35;;;;;;;;;;;13.90;99.90;;;;;;7342419;19;108958;-87
2023/08/07 03:56:03;;;;;;;;;;;13.90;99.90;;;;;;7340937;19;111651;-87
2023/08/07 03:58:30;;;;;;;;;;;13.80;99.90;;;;;;7339741;19;110261;-87
2023/08/07 04:00:57;;;;;;;;;;;13.80;99.90;;;;;;7334862;19;108491;-87
2023/08/07 04:03:24;;;;;;;;;;;13.80;99.90;;;;;;7334897;19;110555;-87
2023/08/07 04:05:53;;;;;;;;;;;13.80;99.90;;;;;;7334876;19;110932;-87
2023/08/07 04:08:21;;;;;;;;;;;13.80;99.90;;;;;;7335811;19;108662;-88
2023/08/07 04:11:07;;;;;;;;;;;13.80;99.90;;;;;;7338110;19;109577;-87
2023/08/07 04:13:34;;;;;;;;;;;13.70;99.90;;;;;;7339926;19;109212;-88
2023/08/07 04:16:04;;;;;;;;;;;13.70;99.90;;;;;;7335159;19;110507;-87
2023/08/07 04:18:34;;;;;;;;;;;13.70;99.90;;;;;;7337067;19;111302;-87
2023/08/07 04:21:01;;;;;;;;;;;13.60;99.90;;;;;;7339258;19;108812;-88
2023/08/07 04:23:29;;;;;;;;;;;13.70;99.90;;;;;;7326272;19;110694;-67
2023/08/07 04:25:56;;;;;;;;;;;13.70;99.90;;;;;;7328361;19;109095;-67
2023/08/07 04:28:23;;;;;;;;;;;13.60;99.90;;;;;;7329876;19;109154;-69
2023/08/07 04:30:51;;;;;;;;;;;13.60;99.90;;;;;;7329677;19;109223;-67
2023/08/07 04:33:19;;;;;;;;;;;13.60;99.90;;;;;;7336023;19;111728;-67
2023/08/07 04:35:48;;;;;;;;;;;13.60;99.90;;;;;;7325455;19;109388;-67
2023/08/07 04:38:16;;;;;;;;;;;13.60;99.90;;;;;;7332071;19;110253;-67
2023/08/07 04:40:44;;;;;;;;;;;13.60;99.90;;;;;;7322724;19;109343;-67
2023/08/07 04:43:12;;;;;;;;;;;13.60;99.90;;;;;;7323340;19;109580;-67
2023/08/07 04:45:40;;;;;;;;;;;13.60;99.90;;;;;;7328279;19;110385;-67
2023/08/07 04:48:08;;;;;;;;;;;13.60;99.90;;;;;;7325552;19;110031;-67
2023/08/07 04:50:35;;;;;;;;;;;13.60;99.90;;;;;;7328878;19;109226;-67
2023/08/07 04:53:02;;;;;;;;;;;13.60;99.90;;;;;;7332243;19;110232;-67
2023/08/07 04:55:30;;;;;;;;;;;13.60;99.90;;;;;;7337783;19;108985;-67
2023/08/07 04:57:57;;;;;;;;;;;13.60;99.90;;;;;;7333221;19;109954;-67
2023/08/07 05:00:25;;;;;;;;;;;13.60;99.90;;;;;;7337190;19;109856;-67
2023/08/07 05:02:52;;;;;;;;;;;13.60;99.90;;;;;;7330579;19;109697;-66
2023/08/07 05:05:21;;;;;;;;;;;13.60;99.90;;;;;;7325435;19;109199;-67
2023/08/07 05:07:48;;;;;;;;;;;13.60;99.90;;;;;;7329665;19;109020;-66
2023/08/07 05:10:15;;;;;;;;;;;13.60;99.90;;;;;;7331349;19;110448;-66
2023/08/07 05:12:42;;;;;;;;;;;13.60;99.90;;;;;;7330842;19;110029;-66
2023/08/07 05:15:10;;;;;;;;;;;13.70;99.90;;;;;;7330660;19;108921;-67
2023/08/07 05:17:37;;;;;;;;;;;13.70;99.90;;;;;;7336098;19;109455;-66
2023/08/07 05:20:05;;;;;;;;;;;13.70;99.90;;;;;;7326348;19;110108;-66
2023/08/07 05:22:32;;;;;;;;;;;13.70;99.90;;;;;;7337208;19;109619;-66
2023/08/07 05:24:59;;;;;;;;;;;13.80;99.90;;;;;;7336615;19;110043;-66
2023/08/07 05:27:28;;;;;;;;;;;13.80;99.90;;;;;;7329761;19;109356;-67
2023/08/07 05:29:57;;;;;;;;;;;13.90;99.90;;;;;;7335602;19;108658;-68
2023/08/07 05:32:25;;;;;;;;;;;13.90;99.90;;;;;;7329272;19;109732;-67
2023/08/07 05:34:52;;;;;;;;;;;13.90;99.90;;;;;;7336427;19;109084;-68
2023/08/07 05:37:19;;;;;;;;;;;14.00;99.90;;;;;;7328811;19;108937;-68
2023/08/07 05:39:46;;;;;;;;;;;14.00;99.90;;;;;;7341546;19;109865;-66
2023/08/07 05:42:13;;;;;;;;;;;14.00;99.90;;;;;;7333051;19;109391;-67
2023/08/07 05:44:40;;;;;;;;;;;14.00;99.90;;;;;;7332810;19;110514;-66
2023/08/07 05:47:08;;;;;;;;;;;14.10;99.90;;;;;;7332093;19;110107;-66
2023/08/07 05:49:35;;;;;;;;;;;14.10;99.90;;;;;;7332358;19;109576;-66
2023/08/07 05:52:02;;;;;;;;;;;14.10;99.90;;;;;;7329721;19;110156;-68
2023/08/07 05:54:29;;;;;;;;;;;14.20;99.90;;;;;;7327704;19;110380;-67
2023/08/07 05:56:56;;;;;;;;;;;14.20;99.90;;;;;;7331238;19;108744;-67
2023/08/07 05:59:23;;;;;;;;;;;14.20;99.90;;;;;;7327154;19;109185;-67
2023/08/07 06:01:51;;;;;;;;;;;14.20;99.90;;;;;;7339279;19;108747;-68
2023/08/07 06:04:18;;;;;;;;;;;14.30;99.90;;;;;;7335968;19;109243;-68
2023/08/07 06:06:45;;;;;;;;;;;14.30;99.90;;;;;;7336196;19;111068;-68
2023/08/07 06:09:15;;;;;;;;;;;14.40;99.90;;;;;;7335545;19;109626;-68
2023/08/07 06:11:42;;;;;;;;;;;14.50;99.90;;;;;;7335603;19;110633;-68
2023/08/07 06:14:09;;;;;;;;;;;14.60;99.90;;;;;;7336332;19;108751;-68
2023/08/07 06:16:37;;;;;;;;;;;14.70;99.90;;;;;;7332771;19;109356;-68
2023/08/07 06:19:04;;;;;;;;;;;14.70;99.90;;;;;;7330790;19;109277;-68
2023/08/07 06:21:47;;;;;;;;;;;14.80;99.90;;;;;;7333705;19;109032;-69
2023/08/07 06:24:14;;;;;;;;;;;14.80;99.90;;;;;;7340024;19;109495;-68
2023/08/07 06:26:41;;;;;;;;;;;14.80;99.90;;;;;;7331369;19;109423;-70
2023/08/07 06:29:08;;;;;;;;;;;14.80;99.90;;;;;;7338457;19;109400;-68
2023/08/07 06:31:35;;;;;;;;;;;14.80;99.90;;;;;;7326055;19;109249;-68
2023/08/07 06:34:02;;;;;;;;;;;14.80;99.90;;;;;;7335335;19;109348;-68
2023/08/07 06:36:30;;;;;;;;;;;14.90;99.90;;;;;;7331694;19;108433;-68
2023/08/07 06:38:57;;;;;;;;;;;14.90;99.90;;;;;;7334109;19;109182;-68
2023/08/07 06:41:24;;;;;;;;;;;15.00;99.90;;;;;;7330033;19;110483;-68
2023/08/07 06:43:51;;;;;;;;;;;15.00;99.90;;;;;;7341674;19;108731;-69
2023/08/07 06:46:24;;;;;;;;;;;15.20;99.90;;;;;;7331720;19;114746;-67
2023/08/07 06:48:51;;;;;;;;;;;15.30;99.90;;;;;;7333523;19;110044;-68
2023/08/07 06:51:18;;;;;;;;;;;15.40;99.90;;;;;;7330621;19;110230;-68
2023/08/07 06:53:45;;;;;;;;;;;15.60;99.90;;;;;;7336495;19;108762;-68
2023/08/07 06:56:12;;;;;;;;;;;15.60;99.90;;;;;;7330742;19;109491;-68
2023/08/07 06:58:39;;;;;;;;;;;15.60;99.90;;;;;;7332818;19;109996;-67
2023/08/07 07:01:07;;;;;;;;;;;15.70;99.90;;;;;;7329073;19;110010;-68
2023/08/07 07:03:34;;;;;;;;;;;15.70;99.90;;;;;;7333923;19;109277;-68
2023/08/07 07:06:01;;;;;;;;;;;15.70;99.90;;;;;;7318508;19;109575;-68
2023/08/07 07:08:28;;;;;;;;;;;15.70;99.90;;;;;;7322711;19;111169;-67
2023/08/07 07:10:58;;;;;;;;;;;15.80;99.90;;;;;;7324070;19;110319;-68
2023/08/07 07:13:25;;;;;;;;;;;15.80;99.90;;;;;;7326749;19;109122;-68
2023/08/07 07:15:53;;;;;;;;;;;15.90;99.90;;;;;;7326160;19;109204;-67
2023/08/07 07:18:20;;;;;;;;;;;15.90;99.90;;;;;;7327435;19;110643;-66
2023/08/07 07:20:47;;;;;;;;;;;15.90;99.90;;;;;;7324059;19;109866;-69
2023/08/07 07:23:15;;;;;;;;;;;16.00;99.90;;;;;;7334015;19;110030;-68
2023/08/07 07:25:42;;;;;;;;;;;16.10;99.90;;;;;;7332265;19;109224;-68
2023/08/07 07:28:09;;;;;;;;;;;16.10;99.90;;;;;;7334464;19;110015;-68
2023/08/07 07:30:38;;;;;;;;;;;16.10;99.90;;;;;;7329808;19;109954;-68
2023/08/07 07:33:06;;;;;;;;;;;16.20;99.90;;;;;;7328662;19;109931;-69
2023/08/07 07:35:37;;;;;;;;;;;16.20;99.90;;;;;;7322647;19;109653;-68
2023/08/07 07:38:04;;;;;;;;;;;16.20;99.90;;;;;;7331777;19;110205;-68
2023/08/07 07:40:31;;;;;;;;;;;16.30;99.90;;;;;;7327935;19;110621;-68
2023/08/07 07:42:58;;;;;;;;;;;16.30;99.90;;;;;;7330892;19;111116;-67
2023/08/07 07:45:27;;;;;;;;;;;16.40;99.90;;;;;;7326362;19;109091;-68
2023/08/07 07:47:54;;;;;;;;;;;16.50;99.90;;;;;;7332333;19;108878;-68
2023/08/07 07:50:21;;;;;;;;;;;16.60;99.90;;;;;;7328777;19;108882;-68
2023/08/07 07:52:48;;;;;;;;;;;16.80;99.90;;;;;;7330886;19;112717;-67
2023/08/07 07:55:16;;;;;;;;;;;16.80;99.90;;;;;;7331876;19;110645;-68
2023/08/07 07:57:43;;;;;;;;;;;16.90;99.90;;;;;;7330554;19;109967;-67
2023/08/07 08:00:12;;;;;;;;;;;17.00;99.90;;;;;;7334268;19;108765;-73
2023/08/07 08:02:43;;;;;;;;;;;17.20;99.90;;;;;;7328667;19;109257;-68
2023/08/07 08:05:13;;;;;;;;;;;17.30;99.90;;;;;;7325977;19;109553;-68
2023/08/07 08:07:40;;;;;;;;;;;17.50;99.90;;;;;;7324676;19;110156;-68
2023/08/07 08:10:08;;;;;;;;;;;17.60;99.90;;;;;;7330862;19;108656;-68
2023/08/07 08:12:36;;;;;;;;;;;17.50;99.90;;;;;;7332677;19;110183;-67
2023/08/07 08:15:04;;;;;;;;;;;17.40;99.90;;;;;;7326035;19;109717;-71
2023/08/07 08:17:31;;;;;;;;;;;17.50;99.90;;;;;;7329376;19;109158;-68
2023/08/07 08:19:59;;;;;;;;;;;17.60;99.90;;;;;;7337331;19;109327;-68
2023/08/07 08:22:26;;;;;;;;;;;17.50;99.90;;;;;;7339484;19;110795;-72
2023/08/07 08:24:56;;;;;;;;;;;17.50;99.90;;;;;;7340668;19;110388;-68
2023/08/07 08:27:25;;;;;;;;;;;17.50;99.90;;;;;;7334991;19;108614;-67
2023/08/07 08:29:55;;;;;;;;;;;17.50;99.90;;;;;;7336772;19;110101;-67
2023/08/07 08:32:22;;;;;;;;;;;17.50;99.90;;;;;;7350712;19;109147;-91
2023/08/07 08:34:50;;;;;;;;;;;17.40;99.90;;;;;;7377911;19;108262;-91
2023/08/07 08:37:17;;;;;;;;;;;17.30;99.90;;;;;;7361610;19;109595;-91
2023/08/07 08:39:44;;;;;;;;;;;17.40;99.90;;;;;;7354216;19;110380;-90
2023/08/07 08:42:13;;;;;;;;;;;17.40;99.90;;;;;;7350979;19;109145;-89
2023/08/07 08:44:40;;;;;;;;;;;17.50;99.90;;;;;;7355295;19;108290;-91
2023/08/07 08:47:08;;;;;;;;;;;17.60;99.90;;;;;;7344547;19;108921;-91
2023/08/07 08:49:40;;;;;;;;;;;17.80;99.90;;;;;;7348361;19;108764;-91
2023/08/07 08:52:08;;;;;;;;;;;18.00;99.90;;;;;;7351014;19;108910;-92
2023/08/07 08:54:36;;;;;;;;;;;18.10;99.90;;;;;;7361725;19;108750;-91
2023/08/07 08:57:03;;;;;;;;;;;18.10;99.90;;;;;;7355968;19;108741;-88
2023/08/07 08:59:30;;;;;;;;;;;18.10;99.90;;;;;;7352665;19;108705;-89
2023/08/07 09:01:58;;;;;;;;;;;17.90;99.90;;;;;;7347880;19;108755;-91
2023/08/07 09:04:25;;;;;;;;;;;17.70;99.90;;;;;;7350770;19;108429;-90
2023/08/07 09:06:52;;;;;;;;;;;17.70;99.90;;;;;;7346086;19;110294;-91
2023/08/07 09:09:20;;;;;;;;;;;17.80;99.90;;;;;;7326922;19;110716;-67
2023/08/07 09:11:47;;;;;;;;;;;18.00;99.90;;;;;;7328957;19;110044;-67
2023/08/07 09:14:26;;;;;;;;;;;18.10;99.90;;;;;;7330251;19;109101;-68
2023/08/07 09:16:54;;;;;;;;;;;18.20;99.90;;;;;;7332382;19;110572;-68
2023/08/07 09:19:21;;;;;;;;;;;18.40;99.90;;;;;;7330954;19;110608;-68
2023/08/07 09:21:49;;;;;;;;;;;18.40;99.90;;;;;;7329571;19;111760;-68
2023/08/07 09:24:18;;;;;;;;;;;18.50;99.90;;;;;;7328440;19;109338;-68
2023/08/07 09:26:50;;;;;;;;;;;18.60;99.90;;;;;;7334220;19;110690;-68
2023/08/07 09:29:18;;;;;;;;;;;18.70;99.90;;;;;;7336961;19;110804;-68
2023/08/07 09:31:46;;;;;;;;;;;18.80;99.90;;;;;;7330261;19;109402;-68
2023/08/07 09:34:16;;;;;;;;;;;18.70;99.90;;;;;;7333896;19;109647;-68
2023/08/07 09:36:43;;;;;;;;;;;18.70;99.90;;;;;;7333564;19;109014;-68
2023/08/07 09:39:10;;;;;;;;;;;18.60;99.90;;;;;;7334056;19;110596;-89
2023/08/07 09:41:37;;;;;;;;;;;18.60;99.90;;;;;;7329977;19;111252;-89
2023/08/07 09:44:13;;;;;;;;;;;18.60;99.90;;;;;;7329277;19;113039;-88
2023/08/07 09:46:41;;;;;;;;;;;18.60;99.90;;;;;;7331938;19;108877;-89
2023/08/07 09:49:09;;;;;;;;;;;18.70;99.90;;;;;;7332322;19;109316;-89
2023/08/07 09:51:42;;;;;;;;;;;18.80;99.90;;;;;;7332902;19;110230;-89
2023/08/07 09:54:13;;;;;;;;;;;19.00;99.90;;;;;;7334957;19;109129;-87
2023/08/07 09:56:41;;;;;;;;;;;19.30;99.90;;;;;;7340440;19;108882;-91
2023/08/07 09:59:08;;;;;;;;;;;19.30;99.90;;;;;;7338104;19;110260;-92
2023/08/07 10:01:40;;;;;;;;;;;19.30;99.90;;;;;;7345137;19;109363;-91
2023/08/07 10:04:07;;;;;;;;;;;19.30;99.90;;;;;;7337401;19;110116;-90
2023/08/07 10:06:35;;;;;;;;;;;19.30;99.90;;;;;;7338037;19;108944;-92
2023/08/07 10:09:16;;;;;;;;;;;;;;;;;;;;;
2023/08/07 10:11:51;;;;;;;;;;;19.40;99.90;;;;;;7339694;19;111608;-90
2023/08/07 10:14:18;;;;;;;;;;;19.40;99.90;;;;;;7335177;19;108967;-90
2023/08/07 10:16:46;;;;;;;;;;;19.40;99.90;;;;;;7337884;19;111524;-89
2023/08/07 10:19:19;;;;;;;;;;;19.50;99.90;;;;;;7335316;19;110325;-90
2023/08/07 10:21:47;;;;;;;;;;;19.50;99.90;;;;;;7336260;19;108750;-89
2023/08/07 10:24:14;;;;;;;;;;;19.50;99.90;;;;;;7342016;19;109712;-89
2023/08/07 10:26:43;;;;;;;;;;;19.40;99.90;;;;;;7337942;19;108925;-88
2023/08/07 10:29:12;;;;;;;;;;;19.30;99.90;;;;;;7341501;19;110531;-91
2023/08/07 10:31:41;;;;;;;;;;;19.30;99.90;;;;;;7336580;19;109037;-91
2023/08/07 10:34:09;;;;;;;;;;;19.30;99.90;;;;;;7336942;19;108322;-91
2023/08/07 10:36:38;;;;;;;;;;;19.30;99.90;;;;;;7337995;19;110535;-90
2023/08/07 10:39:09;;;;;;;;;;;19.20;99.90;;;;;;7335605;19;110484;-90
2023/08/07 10:41:40;;;;;;;;;;;19.40;99.90;;;;;;7329297;19;110881;-90
2023/08/07 10:44:21;;;;;;;;;;;19.60;99.90;;;;;;7338829;19;108786;-92
2023/08/07 10:46:49;;;;;;;;;;;19.60;99.90;;;;;;7335626;19;108977;-90
2023/08/07 10:49:39;;;;;;;;;;;19.50;99.90;;;;;;7334495;19;109598;-73
2023/08/07 10:52:14;;;;;;;;;;;19.50;99.90;;;;;;7330204;19;109742;-71
2023/08/07 10:54:45;;;;;;;;;;;19.70;99.90;;;;;;7332675;19;110393;-72
2023/08/07 10:57:14;;;;;;;;;;;19.70;99.90;;;;;;7332639;19;109016;-72
2023/08/07 10:59:48;;;;;;;;;;;19.80;99.90;;;;;;7336287;19;109103;-73
2023/08/07 11:02:22;;;;;;;;;;;19.90;99.90;;;;;;7332655;19;108945;-73
2023/08/07 11:04:50;;;;;;;;;;;19.90;99.90;;;;;;7333764;19;108933;-71
2023/08/07 11:07:24;;;;;;;;;;;19.90;99.90;;;;;;7335568;19;109344;-73
2023/08/07 11:09:51;;;;;;;;;;;19.80;99.90;;;;;;7331966;19;108900;-73
2023/08/07 11:12:19;;;;;;;;;;;19.90;99.90;;;;;;7320780;19;110634;-74
2023/08/07 11:14:46;;;;;;;;;;;20.00;99.90;;;;;;7330975;19;108827;-73
2023/08/07 11:17:13;;;;;;;;;;;20.00;99.90;;;;;;7331514;19;111836;-72
2023/08/07 11:19:40;;;;;;;;;;;20.00;99.90;;;;;;7332011;19;111450;-73
2023/08/07 11:22:08;;;;;;;;;;;20.10;99.90;;;;;;7333463;19;109551;-72
2023/08/07 11:24:35;;;;;;;;;;;20.30;99.90;;;;;;7329945;19;109691;-72
2023/08/07 11:27:02;;;;;;;;;;;20.50;99.90;;;;;;7331197;19;109860;-72
2023/08/07 11:29:32;;;;;;;;;;;20.60;99.90;;;;;;7338746;19;108746;-74
2023/08/07 11:32:00;;;;;;;;;;;20.70;99.90;;;;;;7333957;19;109862;-72
2023/08/07 11:34:27;;;;;;;;;;;20.90;99.90;;;;;;7330598;19;109441;-73
2023/08/07 11:36:57;;;;;;;;;;;20.90;99.90;;;;;;7335302;19;108867;-72
2023/08/07 11:39:26;;;;;;;;;;;20.90;99.90;;;;;;7330838;19;109334;-73
2023/08/07 11:41:56;;;;;;;;;;;20.90;99.90;;;;;;7323980;19;113056;-71
2023/08/07 11:44:25;;;;;;;;;;;21.00;99.90;;;;;;7325366;19;109012;-72
2023/08/07 11:46:55;;;;;;;;;;;21.00;99.90;;;;;;7332401;19;109198;-73
2023/08/07 11:49:23;;;;;;;;;;;21.00;99.90;;;;;;7331476;19;109262;-72
2023/08/07 11:51:50;;;;;;;;;;;20.90;99.90;;;;;;7333169;19;108761;-72
2023/08/07 11:54:18;;;;;;;;;;;20.90;99.90;;;;;;7329788;19;108517;-73
2023/08/07 11:56:45;;;;;;;;;;;20.90;99.90;;;;;;7329222;19;110224;-73
2023/08/07 11:59:16;;;;;;;;;;;21.00;99.90;;;;;;7330703;19;109407;-73
2023/08/07 12:01:43;;;;;;;;;;;21.20;99.90;;;;;;7331996;19;109621;-73
2023/08/07 12:04:10;;;;;;;;;;;21.30;99.90;;;;;;7332203;19;109684;-72
2023/08/07 12:06:40;;;;;;;;;;;21.30;99.90;;;;;;7331524;19;109404;-73
2023/08/07 12:09:12;;;;;;;;;;;21.50;99.90;;;;;;7333996;19;109620;-72
2023/08/07 12:11:40;;;;;;;;;;;21.50;99.90;;;;;;7331953;19;108843;-72
2023/08/07 12:14:07;;;;;;;;;;;21.50;99.90;;;;;;7328771;19;109128;-72
2023/08/07 12:16:35;;;;;;;;;;;21.40;99.90;;;;;;7328517;19;108639;-72
2023/08/07 12:19:03;;;;;;;;;;;21.00;99.90;;;;;;7330976;19;110176;-73
2023/08/07 12:21:33;;;;;;;;;;;21.00;99.90;;;;;;7329145;19;108949;-72
2023/08/07 12:24:00;;;;;;;;;;;21.00;99.90;;;;;;7330353;19;108562;-72
2023/08/07 12:26:27;;;;;;;;;;;21.10;99.90;;;;;;7329279;19;109336;-73
2023/08/07 12:28:54;;;;;;;;;;;21.00;99.90;;;;;;7332098;19;108875;-73
2023/08/07 12:31:22;;;;;;;;;;;21.00;99.90;;;;;;7332673;19;110095;-73
2023/08/07 12:33:49;;;;;;;;;;;21.20;99.90;;;;;;7335214;19;110058;-73
2023/08/07 12:36:16;;;;;;;;;;;21.40;99.90;;;;;;7337400;19;108418;-73
2023/08/07 12:38:46;;;;;;;;;;;21.60;99.90;;;;;;7334311;19;109139;-74
2023/08/07 12:41:14;;;;;;;;;;;21.50;99.90;;;;;;7330090;19;109425;-74
2023/08/07 12:43:44;;;;;;;;;;;21.50;99.90;;;;;;7319318;19;113083;-75
2023/08/07 12:46:11;;;;;;;;;;;21.70;99.90;;;;;;7323435;19;109094;-72
2023/08/07 12:48:41;;;;;;;;;;;21.80;99.90;;;;;;7329415;19;108580;-72
2023/08/07 12:51:08;;;;;;;;;;;21.90;99.90;;;;;;7323583;19;111531;-72
2023/08/07 12:53:35;;;;;;;;;;;21.80;99.90;;;;;;7324869;19;109177;-74
2023/08/07 12:56:04;;;;;;;;;;;21.90;99.90;;;;;;7338269;19;111069;-71
2023/08/07 12:58:31;;;;;;;;;;;22.20;99.90;;;;;;7330614;19;110176;-72
2023/08/07 13:00:59;;;;;;;;;;;22.30;99.90;;;;;;7329141;19;109250;-74
2023/08/07 13:03:26;;;;;;;;;;;22.50;99.90;;;;;;7332145;19;110038;-72
2023/08/07 13:05:53;;;;;;;;;;;22.60;99.90;;;;;;7336509;19;110084;-73
2023/08/07 13:08:20;;;;;;;;;;;22.80;99.90;;;;;;7351966;19;108988;-72
2023/08/07 13:10:47;;;;;;;;;;;22.90;99.90;;;;;;7349702;19;108521;-73
2023/08/07 13:13:16;;;;;;;;;;;23.00;99.90;;;;;;7349102;19;108713;-73
2023/08/07 13:15:43;;;;;;;;;;;22.90;99.90;;;;;;7344861;19;111341;-73
2023/08/07 13:18:10;;;;;;;;;;;22.80;99.90;;;;;;7334121;19;111299;-73
2023/08/07 13:20:37;;;;;;;;;;;22.70;99.90;;;;;;7339255;19;108850;-72
2023/08/07 13:23:06;;;;;;;;;;;22.60;99.90;;;;;;7339063;19;109346;-72
2023/08/07 13:25:33;;;;;;;;;;;22.50;99.90;;;;;;7338982;19;109082;-75
2023/08/07 13:28:04;;;;;;;;;;;22.50;99.90;;;;;;7340995;19;109241;-73
2023/08/07 13:30:31;;;;;;;;;;;22.50;99.90;;;;;;7333073;19;110291;-72
2023/08/07 13:33:03;;;;;;;;;;;22.50;99.90;;;;;;7333288;19;109947;-73
2023/08/07 13:35:32;;;;;;;;;;;22.40;99.90;;;;;;7335492;19;109708;-72
2023/08/07 13:38:00;;;;;;;;;;;22.50;99.90;;;;;;7340027;19;108489;-74
2023/08/07 13:40:27;;;;;;;;;;;22.60;99.90;;;;;;7342620;19;109594;-74
2023/08/07 13:42:54;;;;;;;;;;;22.70;99.90;;;;;;7339877;19;112135;-72
2023/08/07 13:45:21;;;;;;;;;;;22.70;99.90;;;;;;7334874;19;110686;-71
2023/08/07 13:47:48;;;;;;;;;;;22.50;99.90;;;;;;7331064;19;108692;-72
2023/08/07 13:50:16;;;;;;;;;;;22.30;99.90;;;;;;7328927;19;109456;-71
2023/08/07 13:52:43;;;;;;;;;;;22.20;99.90;;;;;;7332580;19;109650;-70
2023/08/07 13:55:10;;;;;;;;;;;22.10;99.90;;;;;;7329592;19;110095;-71
2023/08/07 13:57:37;;;;;;;;;;;22.00;99.90;;;;;;7328342;19;108782;-75
2023/08/07 14:00:04;;;;;;;;;;;22.10;99.90;;;;;;7332928;19;109445;-75
2023/08/07 14:02:34;;;;;;;;;;;22.10;99.90;;;;;;7333760;19;108858;-74
2023/08/07 14:05:02;;;;;;;;;;;22.30;99.90;;;;;;7337630;19;109209;-73
2023/08/07 14:07:29;;;;;;;;;;;22.40;99.90;;;;;;7337364;19;108377;-75
2023/08/07 14:09:56;;;;;;;;;;;22.50;99.90;;;;;;7338641;19;109151;-76
2023/08/07 14:12:23;;;;;;;;;;;22.50;99.90;;;;;;7338459;19;110553;-76